createdAt,value
2023-02-12T00:01:25.818Z,7.96
2023-02-12T00:03:53.242Z,7.97
2023-02-12T00:06:21.089Z,7.95
2023-02-12T00:08:53.582Z,7.96
2023-02-12T00:11:25.897Z,7.97
2023-02-12T00:13:55.859Z,7.95
2023-02-12T00:16:29.043Z,7.95
2023-02-12T00:18:58.182Z,7.97
2023-02-12T00:21:26.057Z,7.95
2023-02-12T00:23:53.257Z,7.96
2023-02-12T00:26:22.195Z,7.94
2023-02-12T00:28:51.118Z,7.94
2023-02-12T00:31:26.005Z,7.91
2023-02-12T00:33:53.560Z,7.90
2023-02-12T00:36:24.547Z,7.91
2023-02-12T00:38:54.189Z,7.93
2023-02-12T00:41:22.728Z,7.91
2023-02-12T00:43:50.971Z,7.89
2023-02-12T00:46:18.868Z,7.90
2023-02-12T00:48:46.106Z,7.86
2023-02-12T00:51:14.013Z,7.89
2023-02-12T00:53:41.438Z,7.88
2023-02-12T00:56:08.632Z,7.89
2023-02-12T00:58:35.872Z,7.93
2023-02-12T01:01:03.563Z,7.91
2023-02-12T01:03:30.761Z,7.87
2023-02-12T01:05:58.202Z,7.84
2023-02-12T01:08:25.660Z,7.87
2023-02-12T01:11:02.770Z,7.86
2023-02-12T01:13:32.197Z,7.92
2023-02-12T01:16:15.509Z,7.96
2023-02-12T01:18:43.194Z,7.88
2023-02-12T01:21:14.392Z,7.90
2023-02-12T01:23:43.102Z,7.90
2023-02-12T01:26:12.372Z,7.88
2023-02-12T01:28:42.625Z,7.86
2023-02-12T01:31:19.443Z,7.90
2023-02-12T01:33:53.223Z,7.89
2023-02-12T01:36:20.951Z,7.86
2023-02-12T01:38:49.025Z,7.87
2023-02-12T01:41:20.908Z,7.86
2023-02-12T01:44:16.359Z,7.86
2023-02-12T01:46:46.118Z,7.88
2023-02-12T01:49:31.992Z,7.85
2023-02-12T01:52:07.035Z,7.84
2023-02-12T01:54:37.105Z,7.83
2023-02-12T01:57:07.824Z,7.87
2023-02-12T01:59:39.353Z,7.83
2023-02-12T02:02:06.844Z,7.87
2023-02-12T02:04:45.467Z,7.86
2023-02-12T02:07:12.841Z,7.89
2023-02-12T02:09:41.129Z,7.77
2023-02-12T02:12:27.471Z,7.86
2023-02-12T02:14:59.041Z,7.78
2023-02-12T02:17:38.571Z,7.76
2023-02-12T02:20:48.617Z,7.76
2023-02-12T02:23:34.578Z,7.79
2023-02-12T02:26:50.547Z,7.91
2023-02-12T02:30:08.258Z,7.86
2023-02-12T02:33:34.288Z,7.78
2023-02-12T02:36:20.830Z,7.91
2023-02-12T02:39:00.537Z,7.91
2023-02-12T02:41:36.886Z,7.93
2023-02-12T02:44:24.950Z,7.94
2023-02-12T02:46:54.670Z,7.92
2023-02-12T02:49:43.145Z,7.96
2023-02-12T02:52:19.149Z,7.95
2023-02-12T02:54:55.883Z,7.93
2023-02-12T02:57:31.675Z,7.85
2023-02-12T03:00:12.956Z,7.83
2023-02-12T03:02:47.968Z,7.78
2023-02-12T03:05:35.597Z,7.79
2023-02-12T03:08:25.088Z,7.80
2023-02-12T03:11:05.865Z,7.91
2023-02-12T03:13:48.944Z,7.88
2023-02-12T03:16:27.632Z,7.91
2023-02-12T03:19:14.000Z,7.84
2023-02-12T03:21:48.031Z,7.91
2023-02-12T03:24:40.578Z,7.88
2023-02-12T03:27:14.871Z,7.82
2023-02-12T03:29:42.122Z,7.86
2023-02-12T03:32:46.499Z,7.91
2023-02-12T03:35:29.381Z,7.82
2023-02-12T03:38:15.724Z,7.88
2023-02-12T03:41:06.599Z,7.70
2023-02-12T03:43:59.783Z,7.73
2023-02-12T03:47:04.342Z,7.60
2023-02-12T03:49:51.491Z,7.53
2023-02-12T03:52:18.831Z,7.54
2023-02-12T03:54:46.345Z,7.57
2023-02-12T03:57:22.396Z,7.54
2023-02-12T03:59:51.207Z,7.51
2023-02-12T04:02:19.481Z,7.53
2023-02-12T04:04:47.543Z,7.56
2023-02-12T04:07:16.454Z,7.57
2023-02-12T04:09:44.178Z,7.62
2023-02-12T04:12:35.056Z,7.53
2023-02-12T04:15:44.258Z,7.57
2023-02-12T04:18:34.022Z,7.49
2023-02-12T04:21:13.672Z,7.52
2023-02-12T04:24:10.711Z,7.50
2023-02-12T04:27:08.143Z,7.62
2023-02-12T04:29:49.413Z,7.53
2023-02-12T04:32:36.298Z,7.49
2023-02-12T04:35:31.356Z,7.48
2023-02-12T04:38:15.011Z,7.54
2023-02-12T04:40:43.740Z,7.56
2023-02-12T04:43:11.208Z,7.54
2023-02-12T04:45:38.819Z,7.53
2023-02-12T04:48:06.922Z,7.50
2023-02-12T04:50:42.481Z,7.56
2023-02-12T04:53:10.949Z,7.58
2023-02-12T04:55:38.509Z,7.65
2023-02-12T04:58:06.620Z,7.64
2023-02-12T05:00:33.902Z,7.65
2023-02-12T05:03:01.482Z,7.65
2023-02-12T05:05:28.663Z,7.67
2023-02-12T05:07:55.880Z,7.62
2023-02-12T05:10:23.328Z,7.61
2023-02-12T05:12:55.529Z,7.65
2023-02-12T05:15:22.985Z,7.62
2023-02-12T05:17:50.249Z,7.64
2023-02-12T05:20:17.569Z,7.65
2023-02-12T05:22:44.723Z,7.70
2023-02-12T05:25:11.938Z,7.62
2023-02-12T05:27:39.092Z,7.70
2023-02-12T05:30:07.303Z,7.65
2023-02-12T05:32:34.482Z,7.70
2023-02-12T05:35:01.679Z,7.67
2023-02-12T05:37:28.922Z,7.70
2023-02-12T05:39:56.084Z,7.70
2023-02-12T05:42:23.230Z,7.62
2023-02-12T05:44:50.380Z,7.64
2023-02-12T05:47:17.521Z,7.67
2023-02-12T05:49:44.737Z,7.64
2023-02-12T05:52:11.940Z,7.64
2023-02-12T05:54:39.123Z,7.67
2023-02-12T05:57:07.493Z,7.66
2023-02-12T05:59:34.749Z,7.66
2023-02-12T06:02:01.955Z,7.63
2023-02-12T06:04:29.600Z,7.68
2023-02-12T06:06:57.320Z,7.64
2023-02-12T06:09:24.775Z,7.69
2023-02-12T06:11:52.158Z,7.73
2023-02-12T06:14:21.061Z,7.70
2023-02-12T06:16:51.356Z,7.72
2023-02-12T06:19:20.184Z,7.70
2023-02-12T06:21:47.429Z,7.69
2023-02-12T06:24:16.881Z,7.78
2023-02-12T06:26:45.095Z,7.68
2023-02-12T06:29:15.216Z,7.73
2023-02-12T06:31:43.003Z,7.67
2023-02-12T06:34:13.940Z,7.68
2023-02-12T06:36:44.601Z,7.79
2023-02-12T06:39:14.805Z,7.70
2023-02-12T06:41:42.122Z,7.71
2023-02-12T06:44:11.861Z,7.75
2023-02-12T06:46:39.177Z,7.71
2023-02-12T06:49:06.568Z,7.73
2023-02-12T06:51:34.050Z,7.73
2023-02-12T06:54:01.201Z,7.77
2023-02-12T06:56:31.316Z,7.73
2023-02-12T06:59:01.132Z,7.77
2023-02-12T07:01:30.694Z,7.76
2023-02-12T07:04:02.412Z,7.78
2023-02-12T07:06:33.352Z,7.73
2023-02-12T07:09:01.190Z,7.79
2023-02-12T07:11:32.430Z,7.75
2023-02-12T07:13:59.886Z,7.74
2023-02-12T07:16:27.845Z,7.75
2023-02-12T07:18:55.450Z,7.78
2023-02-12T07:21:22.910Z,7.73
2023-02-12T07:23:52.765Z,7.76
2023-02-12T07:26:21.873Z,7.74
2023-02-12T07:28:50.844Z,7.78
2023-02-12T07:31:22.386Z,7.79
2023-02-12T07:33:55.455Z,7.83
2023-02-12T07:36:23.764Z,7.82
2023-02-12T07:38:51.206Z,7.77
2023-02-12T07:41:33.933Z,7.78
2023-02-12T07:44:07.285Z,7.79
2023-02-12T07:46:40.989Z,7.75
2023-02-12T07:49:13.194Z,7.78
2023-02-12T07:51:40.584Z,7.88
2023-02-12T07:54:08.063Z,7.84
2023-02-12T07:56:37.564Z,7.81
2023-02-12T07:59:09.886Z,7.81
2023-02-12T08:01:41.518Z,7.86
2023-02-12T08:04:16.061Z,7.86
2023-02-12T08:06:49.424Z,7.86
2023-02-12T08:09:24.610Z,7.93
2023-02-12T08:11:52.043Z,7.85
2023-02-12T08:14:21.578Z,7.91
2023-02-12T08:16:50.798Z,7.91
2023-02-12T08:19:22.737Z,7.97
2023-02-12T08:21:57.188Z,8.04
2023-02-12T08:24:25.585Z,8.00
2023-02-12T08:26:52.883Z,8.03
2023-02-12T08:29:24.581Z,8.08
2023-02-12T08:31:58.535Z,8.09
2023-02-12T08:34:35.229Z,8.14
2023-02-12T08:37:06.292Z,8.12
2023-02-12T08:39:33.624Z,8.15
2023-02-12T08:42:01.639Z,8.16
2023-02-12T08:44:29.832Z,8.07
2023-02-12T08:46:57.032Z,8.05
2023-02-12T08:49:28.182Z,8.08
2023-02-12T08:51:57.947Z,8.11
2023-02-12T08:54:28.534Z,8.57
2023-02-12T08:57:01.078Z,8.51
2023-02-12T08:59:29.214Z,8.57
2023-02-12T09:01:56.590Z,8.53
2023-02-12T09:04:28.116Z,8.63
2023-02-12T09:06:56.222Z,8.57
2023-02-12T09:09:23.651Z,8.64
2023-02-12T09:11:50.973Z,8.52
2023-02-12T09:14:23.849Z,8.46
2023-02-12T09:16:53.083Z,8.45
2023-02-12T09:19:21.040Z,8.69
2023-02-12T09:21:56.416Z,8.21
2023-02-12T09:24:27.370Z,8.07
2023-02-12T09:26:54.680Z,8.10
2023-02-12T09:29:22.102Z,8.11
2023-02-12T09:31:49.509Z,8.05
2023-02-12T09:34:16.827Z,8.08
2023-02-12T09:36:43.951Z,8.03
2023-02-12T09:39:11.149Z,7.97
2023-02-12T09:42:32.335Z,8.07
2023-02-12T09:45:23.336Z,8.10
2023-02-12T09:48:48.742Z,8.15
2023-02-12T09:51:16.188Z,8.23
2023-02-12T09:53:48.367Z,8.29
2023-02-12T09:56:20.967Z,8.27
2023-02-12T09:58:59.681Z,8.26
2023-02-12T10:01:28.593Z,8.16
2023-02-12T10:03:56.548Z,8.09
2023-02-12T10:06:31.352Z,8.09
2023-02-12T10:09:25.614Z,8.15
2023-02-12T10:11:58.334Z,8.16
2023-02-12T10:14:52.985Z,8.17
2023-02-12T10:18:05.950Z,8.11
2023-02-12T10:21:01.610Z,8.19
2023-02-12T10:23:49.137Z,8.19
2023-02-12T10:26:49.098Z,8.43
2023-02-12T10:29:25.741Z,8.49
2023-02-12T10:32:16.783Z,8.47
2023-02-12T10:34:44.499Z,8.41
2023-02-12T10:37:35.534Z,8.42
2023-02-12T10:40:17.782Z,8.50
2023-02-12T10:42:49.979Z,8.40
2023-02-12T10:45:22.615Z,8.47
2023-02-12T10:48:03.940Z,8.42
2023-02-12T10:50:56.234Z,8.43
2023-02-12T10:53:33.764Z,8.39
2023-02-12T10:56:12.851Z,8.38
2023-02-12T10:58:59.229Z,8.40
2023-02-12T11:01:32.211Z,8.43
2023-02-12T11:04:07.822Z,8.44
2023-02-12T11:06:34.862Z,8.47
2023-02-12T11:09:02.005Z,8.39
2023-02-12T11:11:36.975Z,8.40
2023-02-12T11:14:17.791Z,8.48
2023-02-12T11:16:58.354Z,8.45
2023-02-12T11:19:29.565Z,8.45
2023-02-12T11:22:10.880Z,8.48
2023-02-12T11:24:38.546Z,8.40
2023-02-12T11:27:28.834Z,8.36
2023-02-12T11:30:20.987Z,8.49
2023-02-12T11:32:49.408Z,8.36
2023-02-12T11:35:25.833Z,8.33
2023-02-12T11:37:59.450Z,8.36
2023-02-12T11:40:31.235Z,8.29
2023-02-12T11:43:06.382Z,8.33
2023-02-12T11:45:52.544Z,8.34
2023-02-12T11:48:30.851Z,8.46
2023-02-12T11:51:04.435Z,8.30
2023-02-12T11:53:47.228Z,8.36
2023-02-12T11:56:15.290Z,8.31
2023-02-12T11:58:42.863Z,8.23
2023-02-12T12:01:20.110Z,8.18
2023-02-12T12:04:05.122Z,8.22
2023-02-12T12:06:59.862Z,8.23
2023-02-12T12:09:54.757Z,8.30
2023-02-12T12:12:41.720Z,8.25
2023-02-12T12:15:49.763Z,8.21
2023-02-12T12:18:56.032Z,8.29
2023-02-12T12:21:55.018Z,8.26
2023-02-12T12:24:38.082Z,8.32
2023-02-12T12:27:53.304Z,8.32
2023-02-12T12:30:37.105Z,8.38
2023-02-12T12:33:16.005Z,8.38
2023-02-12T12:36:04.578Z,8.37
2023-02-12T12:39:21.290Z,8.42
2023-02-12T12:42:12.614Z,8.43
2023-02-12T12:45:16.987Z,8.53
2023-02-12T12:48:06.143Z,8.49
2023-02-12T12:50:49.863Z,8.55
2023-02-12T12:53:48.018Z,8.57
2023-02-12T12:56:39.550Z,8.60
2023-02-12T12:59:21.961Z,8.68
2023-02-12T13:02:39.831Z,8.68
2023-02-12T13:05:37.751Z,8.72
2023-02-12T13:08:32.503Z,8.77
2023-02-12T13:11:34.290Z,8.79
2023-02-12T13:14:37.583Z,8.81
2023-02-12T13:17:15.280Z,8.75
2023-02-12T13:20:06.956Z,8.70
2023-02-12T13:23:11.377Z,8.79
2023-02-12T13:26:02.885Z,8.83
2023-02-12T13:28:46.449Z,8.76
2023-02-12T13:31:32.575Z,8.77
2023-02-12T13:34:15.542Z,8.66
2023-02-12T13:36:44.957Z,8.68
2023-02-12T13:39:37.859Z,8.65
2023-02-12T13:42:08.156Z,8.73
2023-02-12T13:45:10.907Z,8.74
2023-02-12T13:48:07.193Z,8.73
2023-02-12T13:51:01.329Z,8.74
2023-02-12T13:53:54.286Z,8.71
2023-02-12T13:56:46.161Z,8.72
2023-02-12T13:59:41.244Z,8.70
2023-02-12T14:02:33.525Z,8.72
2023-02-12T14:05:13.041Z,8.68
2023-02-12T14:07:45.597Z,8.80
2023-02-12T14:11:07.164Z,8.71
2023-02-12T14:13:49.622Z,8.70
2023-02-12T14:16:38.818Z,8.71
2023-02-12T14:19:37.898Z,8.75
2023-02-12T14:22:34.089Z,8.69
2023-02-12T14:25:38.658Z,8.66
2023-02-12T14:28:21.371Z,8.69
2023-02-12T14:31:23.755Z,8.70
2023-02-12T14:34:15.268Z,8.70
2023-02-12T14:36:45.999Z,8.68
2023-02-12T14:39:19.208Z,8.72
2023-02-12T14:42:09.469Z,8.72
2023-02-12T14:44:36.569Z,8.69
2023-02-12T14:47:15.281Z,8.74
2023-02-12T14:49:49.104Z,8.91
2023-02-12T14:52:22.926Z,8.99
2023-02-12T14:55:01.686Z,9.03
2023-02-12T14:57:41.574Z,8.97
2023-02-12T15:00:17.948Z,8.82
2023-02-12T15:02:53.531Z,8.75
2023-02-12T15:05:30.576Z,8.79
2023-02-12T15:08:31.703Z,8.76
2023-02-12T15:11:31.059Z,8.72
2023-02-12T15:14:22.252Z,8.74
2023-02-12T15:17:08.401Z,8.74
2023-02-12T15:19:55.029Z,8.68
2023-02-12T15:22:35.580Z,8.67
2023-02-12T15:25:16.512Z,8.68
2023-02-12T15:27:48.459Z,8.64
2023-02-12T15:30:25.861Z,8.59
2023-02-12T15:32:58.260Z,8.60
2023-02-12T15:35:31.129Z,8.54
2023-02-12T15:38:03.353Z,8.52
2023-02-12T15:40:31.823Z,8.50
2023-02-12T15:43:05.763Z,8.47
2023-02-12T15:45:36.072Z,8.43
2023-02-12T15:48:09.227Z,8.48
2023-02-12T15:50:51.390Z,8.48
2023-02-12T15:53:20.031Z,8.53
2023-02-12T15:55:49.569Z,8.54
2023-02-12T15:58:23.592Z,8.48
2023-02-12T16:00:52.859Z,8.45
2023-02-12T16:03:31.652Z,8.42
2023-02-12T16:06:11.669Z,8.47
2023-02-12T16:08:48.469Z,8.41
2023-02-12T16:11:22.493Z,8.39
2023-02-12T16:13:58.426Z,8.35
2023-02-12T16:16:29.935Z,8.36
2023-02-12T16:19:19.033Z,8.33
2023-02-12T16:22:10.335Z,8.29
2023-02-12T16:24:45.367Z,8.29
2023-02-12T16:27:15.539Z,8.34
2023-02-12T16:29:53.346Z,8.33
2023-02-12T16:32:36.909Z,8.36
2023-02-12T16:35:24.713Z,8.32
2023-02-12T16:38:00.040Z,8.31
2023-02-12T16:40:32.661Z,8.32
2023-02-12T16:43:22.958Z,8.31
2023-02-12T16:45:50.829Z,8.32
2023-02-12T16:48:25.026Z,8.27
2023-02-12T16:50:56.650Z,8.24
2023-02-12T16:53:31.923Z,8.27
2023-02-12T16:56:01.923Z,8.29
2023-02-12T16:58:34.058Z,8.24
2023-02-12T17:01:04.321Z,8.31
2023-02-12T17:03:31.950Z,8.23
2023-02-12T17:05:59.464Z,8.22
2023-02-12T17:08:27.049Z,8.24
2023-02-12T17:10:54.378Z,8.22
2023-02-12T17:13:21.724Z,8.22
2023-02-12T17:15:58.256Z,8.21
2023-02-12T17:18:25.735Z,8.20
2023-02-12T17:21:01.892Z,8.24
2023-02-12T17:23:30.273Z,8.22
2023-02-12T17:25:57.925Z,8.25
2023-02-12T17:28:25.733Z,8.23
2023-02-12T17:30:53.722Z,8.24
2023-02-12T17:33:21.087Z,8.23
2023-02-12T17:35:48.269Z,8.28
2023-02-12T17:38:15.424Z,8.20
2023-02-12T17:40:42.654Z,8.18
2023-02-12T17:43:09.950Z,8.20
2023-02-12T17:45:43.033Z,8.20
2023-02-12T17:48:12.823Z,8.22
2023-02-12T17:50:41.151Z,8.22
2023-02-12T17:53:09.912Z,8.19
2023-02-12T17:55:41.090Z,8.19
2023-02-12T17:58:08.299Z,8.18
2023-02-12T18:00:35.473Z,8.15
2023-02-12T18:03:02.896Z,8.19
2023-02-12T18:05:30.029Z,8.15
2023-02-12T18:07:57.236Z,8.20
2023-02-12T18:10:24.527Z,8.16
2023-02-12T18:12:51.676Z,8.16
2023-02-12T18:15:21.009Z,8.19
2023-02-12T18:17:48.235Z,8.15
2023-02-12T18:20:15.386Z,8.10
2023-02-12T18:22:42.525Z,8.10
2023-02-12T18:25:09.714Z,8.14
2023-02-12T18:27:39.471Z,8.15
2023-02-12T18:30:08.969Z,8.16
2023-02-12T18:32:39.144Z,8.11
2023-02-12T18:35:08.350Z,8.15
2023-02-12T18:37:36.062Z,8.12
2023-02-12T18:40:03.975Z,8.16
2023-02-12T18:42:33.327Z,8.16
2023-02-12T18:45:00.531Z,8.15
2023-02-12T18:47:27.699Z,8.17
2023-02-12T18:49:57.808Z,8.25
2023-02-12T18:52:25.622Z,8.17
2023-02-12T18:54:53.109Z,8.13
2023-02-12T18:57:20.415Z,8.20
2023-02-12T18:59:47.625Z,8.21
2023-02-12T19:02:14.942Z,8.18
2023-02-12T19:04:42.229Z,8.21
2023-02-12T19:07:09.457Z,8.16
2023-02-12T19:09:36.638Z,8.15
2023-02-12T19:12:05.612Z,8.16
2023-02-12T19:14:33.341Z,8.13
2023-02-12T19:17:00.718Z,8.17
2023-02-12T19:19:27.995Z,8.21
2023-02-12T19:21:55.215Z,8.19
2023-02-12T19:24:22.354Z,8.26
2023-02-12T19:26:52.658Z,8.17
2023-02-12T19:29:20.271Z,8.18
2023-02-12T19:31:47.739Z,8.13
2023-02-12T19:34:21.697Z,8.15
2023-02-12T19:36:50.054Z,8.19
2023-02-12T19:39:21.560Z,8.09
2023-02-12T19:41:49.800Z,8.10
2023-02-12T19:44:23.582Z,8.09
2023-02-12T19:46:52.260Z,8.07
2023-02-12T19:49:23.406Z,8.03
2023-02-12T19:51:50.850Z,8.05
2023-02-12T19:54:20.522Z,8.05
2023-02-12T19:56:48.738Z,8.04
2023-02-12T19:59:20.989Z,8.08
2023-02-12T20:01:49.151Z,8.16
2023-02-12T20:04:23.081Z,8.15
2023-02-12T20:06:53.368Z,8.14
2023-02-12T20:09:22.468Z,8.12
2023-02-12T20:11:50.183Z,8.05
2023-02-12T20:14:17.547Z,8.05
2023-02-12T20:16:46.691Z,8.07
2023-02-12T20:19:21.686Z,8.10
2023-02-12T20:21:54.157Z,8.13
2023-02-12T20:24:24.957Z,8.13
2023-02-12T20:26:53.274Z,8.10
2023-02-12T20:29:22.085Z,8.11
2023-02-12T20:31:50.102Z,8.07
2023-02-12T20:34:19.633Z,8.10
2023-02-12T20:36:47.787Z,8.02
2023-02-12T20:39:19.222Z,8.03
2023-02-12T20:41:47.777Z,8.04
2023-02-12T20:44:20.095Z,8.05
2023-02-12T20:46:50.660Z,8.05
2023-02-12T20:49:21.588Z,8.07
2023-02-12T20:51:50.239Z,8.03
2023-02-12T20:54:17.514Z,8.01
2023-02-12T20:56:44.909Z,7.99
2023-02-12T20:59:12.439Z,7.97
2023-02-12T21:01:41.878Z,7.99
2023-02-12T21:04:16.814Z,8.05
2023-02-12T21:06:45.567Z,8.28
2023-02-12T21:09:14.476Z,8.38
2023-02-12T21:11:45.668Z,8.37
2023-02-12T21:14:23.999Z,8.07
2023-02-12T21:16:54.631Z,8.13
2023-02-12T21:19:22.852Z,8.05
2023-02-12T21:21:50.175Z,8.10
2023-02-12T21:24:25.341Z,8.09
2023-02-12T21:26:54.475Z,8.01
2023-02-12T21:29:23.119Z,8.10
2023-02-12T21:31:51.387Z,8.07
2023-02-12T21:34:23.408Z,8.08
2023-02-12T21:36:55.466Z,8.08
2023-02-12T21:39:28.108Z,8.13
2023-02-12T21:42:02.655Z,8.11
2023-02-12T21:44:32.874Z,8.10
2023-02-12T21:47:00.110Z,7.99
2023-02-12T21:49:28.429Z,8.02
2023-02-12T21:52:01.826Z,8.10
2023-02-12T21:54:30.713Z,8.02
2023-02-12T21:56:58.964Z,7.97
2023-02-12T21:59:26.491Z,8.03
2023-02-12T22:01:56.118Z,8.02
2023-02-12T22:04:23.264Z,7.98
2023-02-12T22:06:52.846Z,8.06
2023-02-12T22:09:25.700Z,8.04
2023-02-12T22:11:53.024Z,8.07
2023-02-12T22:14:22.129Z,8.01
2023-02-12T22:16:49.962Z,8.09
2023-02-12T22:19:17.832Z,8.11
2023-02-12T22:21:45.410Z,8.09
2023-02-12T22:24:16.030Z,8.05
2023-02-12T22:26:44.852Z,8.05
2023-02-12T22:29:15.618Z,8.03
2023-02-12T22:31:45.274Z,7.99
2023-02-12T22:34:17.306Z,8.03
2023-02-12T22:36:45.069Z,7.95
2023-02-12T22:39:13.985Z,8.01
2023-02-12T22:41:42.421Z,8.05
2023-02-12T22:44:12.680Z,7.99
2023-02-12T22:46:41.713Z,8.04
2023-02-12T22:49:09.082Z,8.00
2023-02-12T22:51:38.893Z,8.12
2023-02-12T22:54:07.813Z,8.04
2023-02-12T22:56:35.065Z,7.99
2023-02-12T22:59:02.571Z,8.07
2023-02-12T23:01:31.286Z,8.04
2023-02-12T23:03:58.906Z,8.01
2023-02-12T23:06:29.801Z,8.04
2023-02-12T23:09:02.172Z,8.04
2023-02-12T23:11:32.464Z,7.99
2023-02-12T23:14:00.151Z,8.01
2023-02-12T23:16:27.971Z,8.00
2023-02-12T23:18:57.222Z,7.94
2023-02-12T23:21:26.912Z,7.97
2023-02-12T23:23:55.355Z,8.02
2023-02-12T23:26:23.009Z,8.01
2023-02-12T23:28:50.823Z,7.99
2023-02-12T23:31:18.220Z,7.94
2023-02-12T23:33:45.676Z,7.97
2023-02-12T23:36:12.877Z,7.90
2023-02-12T23:38:40.055Z,8.00
2023-02-12T23:41:07.395Z,8.05
2023-02-12T23:43:34.584Z,7.97
2023-02-12T23:46:01.786Z,7.98
2023-02-12T23:48:28.996Z,7.93
2023-02-12T23:50:56.551Z,7.97
2023-02-12T23:53:23.907Z,7.88
2023-02-12T23:55:51.328Z,7.96
2023-02-12T23:58:19.315Z,7.94
